Time;durP1;ratioP1;P1;durP2;ratioP2;P2;SDS_P1;SDS_P2;PMS_P1;PMS_P2;Temp;Humidity;BMP_temperature;BMP_pressure;BME280_temperature;BME280_humidity;BME280_pressure;Samples;Min_cycle;Max_cycle;Signal;HPM_P1;HPM_P2
2022/01/08 00:00:34;;;;;;;29.88;15.38;;;;;;;-144.19;100.00;77606.88;5075588;28;20429;-86
2022/01/08 00:03:00;;;;;;;32.38;17.13;;;;;;;-144.19;100.00;77602.94;5075502;28;20047;-87
2022/01/08 00:05:27;;;;;;;32.60;19.67;;;;;;;-144.19;100.00;77602.94;5093819;28;20055;-87
2022/01/08 00:07:54;;;;;;;30.63;18.97;;;;;;;-144.19;100.00;77610.81;5075447;28;20056;-87
2022/01/08 00:10:22;;;;;;;38.55;21.17;;;;;;;-144.19;100.00;77591.13;5075369;28;20300;-86
2022/01/08 00:12:50;;;;;;;32.95;18.80;;;;;;;-144.19;100.00;77595.06;5093151;28;20040;-87
2022/01/08 00:15:18;;;;;;;36.25;21.63;;;;;;;-144.19;100.00;77597.03;5093860;28;20048;-87
2022/01/08 00:17:44;;;;;;;34.33;20.55;;;;;;;-144.19;100.00;77602.94;5094018;28;20052;-86
2022/01/08 00:20:12;;;;;;;32.67;19.20;;;;;;;-144.19;100.00;77599.00;5075701;28;20055;-86
2022/01/08 00:22:38;;;;;;;41.08;21.67;;;;;;;-144.19;100.00;77575.38;5075602;28;20052;-88
2022/01/08 00:25:05;;;;;;;39.28;21.63;;;;;;;-144.19;100.00;77577.34;5076067;28;20059;-87
2022/01/08 00:27:31;;;;;;;33.83;20.10;;;;;;;-144.19;100.00;77575.38;5076238;28;20051;-85
2022/01/08 00:29:58;;;;;;;33.67;20.27;;;;;;;-144.19;100.00;77563.56;5093409;28;20394;-86
2022/01/08 00:32:25;;;;;;;24.95;17.00;;;;;;;-144.19;100.00;77530.06;5076267;28;20127;-87
2022/01/08 00:34:52;;;;;;;26.08;16.23;;;;;;;-144.19;100.00;77541.88;5076273;28;20056;-85
2022/01/08 00:37:18;;;;;;;32.43;19.40;;;;;;;-144.19;100.00;77524.16;5075323;28;20051;-87
2022/01/08 00:39:47;;;;;;;38.00;20.92;;;;;;;-144.19;100.00;77520.22;5075297;28;20282;-87
2022/01/08 00:42:14;;;;;;;36.85;21.63;;;;;;;-144.19;100.00;77530.06;5092678;28;20436;-88
2022/01/08 00:44:41;;;;;;;38.45;22.67;;;;;;;-144.19;100.00;77545.84;5093389;28;20047;-86
2022/01/08 00:47:09;;;;;;;31.67;19.40;;;;;;;-144.19;100.00;77579.31;5075960;28;20132;-88
2022/01/08 00:49:36;;;;;;;36.95;23.75;;;;;;;-144.19;100.00;77545.84;5075583;28;20102;-87
2022/01/08 00:52:04;;;;;;;37.72;23.05;;;;;;;-144.19;100.00;77541.88;5075528;28;20494;-86
2022/01/08 00:54:31;;;;;;;37.30;22.65;;;;;;;-144.19;100.00;77553.72;5093719;28;20044;-87
2022/01/08 00:56:58;;;;;;;;;;;;;;;-144.19;100.00;77549.75;5076103;28;20058;-88
2022/01/08 00:59:24;;;;;;;32.42;19.77;;;;;;;-144.19;100.00;77545.84;5076162;28;19930;-87
2022/01/08 01:01:50;;;;;;;33.37;21.53;;;;;;;-144.19;100.00;77528.09;5093427;28;20054;-87
2022/01/08 01:04:17;;;;;;;35.90;22.67;;;;;;;-144.19;100.00;77520.22;5075431;28;20739;-88
2022/01/08 01:06:43;;;;;;;33.30;21.67;;;;;;;-144.19;100.00;77534.00;5075158;28;20048;-87
2022/01/08 01:09:10;;;;;;;38.63;23.10;;;;;;;-144.19;100.00;77516.28;5075448;28;20290;-86
2022/01/08 01:11:36;;;;;;;35.67;22.80;;;;;;;-144.19;100.00;77510.38;5093126;28;20048;-89
2022/01/08 01:14:02;;;;;;;36.73;22.20;;;;;;;-144.19;100.00;77512.34;5093471;28;20422;-87
2022/01/08 01:16:29;;;;;;;39.77;23.50;;;;;;;-144.19;100.00;77530.06;5076332;28;20290;-83
2022/01/08 01:18:57;;;;;;;36.65;22.25;;;;;;;-144.19;100.00;77528.09;5092860;28;20502;-88
2022/01/08 01:21:24;;;;;;;38.17;22.77;;;;;;;-144.19;100.00;77504.47;5092899;28;20453;-87
2022/01/08 01:23:51;;;;;;;35.60;23.60;;;;;;;-144.19;100.00;77512.34;5074696;28;20052;-88
2022/01/08 01:26:22;;;;;;;;;;;;;;;-144.19;100.00;77512.34;5075389;28;20282;-85
2022/01/08 01:28:57;;;;;;;34.67;22.77;;;;;;;-144.19;100.00;77508.41;5075758;28;19919;-86
2022/01/08 01:42:40;;;;;;;34.65;20.80;;;;;;;-144.19;100.00;77539.91;5093028;28;20040;-87
2022/01/08 01:47:55;;;;;;;34.72;21.52;;;;;;;-144.19;100.00;77539.91;5072386;28;20055;-88
2022/01/08 01:50:23;;;;;;;35.47;21.02;;;;;;;-144.19;100.00;77545.84;5071829;28;20059;-87
2022/01/08 01:52:49;;;;;;;35.70;21.30;;;;;;;-144.19;100.00;77567.50;5069572;28;20040;-88
2022/01/08 01:55:16;;;;;;;33.67;22.05;;;;;;;-144.19;100.00;77589.16;5070775;28;20290;-88
2022/01/08 01:57:42;;;;;;;29.17;20.87;;;;;;;-144.19;100.00;77587.19;5065122;28;20056;-86
2022/01/08 02:00:09;;;;;;;36.30;21.47;;;;;;;-144.19;100.00;77602.94;5073293;28;20058;-88
2022/01/08 02:02:38;;;;;;;38.25;23.58;;;;;;;-144.19;100.00;77595.06;5091775;28;20305;-85
2022/01/08 02:05:04;;;;;;;49.53;26.92;;;;;;;-144.19;100.00;77577.34;5091784;28;20091;-88
2022/01/08 02:07:32;;;;;;;44.90;28.40;;;;;;;-144.19;100.00;77577.34;5074696;28;20421;-89
2022/01/08 02:09:58;;;;;;;;;;;;;;;-144.19;100.00;77587.19;5074068;28;20047;-85
2022/01/08 02:12:24;;;;;;;37.80;24.58;;;;;;;-144.19;100.00;77583.25;5073804;28;20381;-87
2022/01/08 02:14:51;;;;;;;43.53;26.38;;;;;;;-144.19;100.00;77606.88;5073621;28;20048;-86
2022/01/08 02:17:18;;;;;;;40.80;26.55;;;;;;;-144.19;100.00;77618.69;5073855;28;20418;-88
2022/01/08 02:19:45;;;;;;;41.85;24.42;;;;;;;-144.19;100.00;77634.44;5073814;28;20086;-88
2022/01/08 02:22:15;;;;;;;47.97;27.73;;;;;;;-144.19;100.00;77618.69;5091607;28;20055;-88
2022/01/08 02:24:44;;;;;;;38.72;25.63;;;;;;;-144.19;100.00;77642.31;5073729;28;20052;-89
2022/01/08 02:27:11;;;;;;;39.78;24.52;;;;;;;-144.19;100.00;77626.56;5074086;28;20414;-87
2022/01/08 02:29:37;;;;;;;41.13;25.42;;;;;;;-144.19;100.00;77626.56;5091664;28;20048;-88
2022/01/08 02:32:10;;;;;;;36.42;23.95;;;;;;;-144.19;100.00;77638.38;5094891;28;20056;-86
2022/01/08 02:34:39;;;;;;;41.58;26.35;;;;;;;-144.19;100.00;77638.38;5078249;28;20078;-88
2022/01/08 02:37:07;;;;;;;44.00;27.30;;;;;;;-144.19;100.00;77642.31;5078032;28;20058;-88
2022/01/08 02:39:39;;;;;;;46.13;27.50;;;;;;;-144.19;100.00;77650.19;5078075;28;20051;-87
2022/01/08 02:42:08;;;;;;;46.35;26.58;;;;;;;-144.19;100.00;77646.25;5077461;28;20051;-86
2022/01/08 02:44:34;;;;;;;44.38;25.88;;;;;;;-144.19;100.00;77658.06;5077899;28;20059;-88
2022/01/08 02:47:01;;;;;;;40.83;24.33;;;;;;;-144.19;100.00;77656.09;5077708;28;20062;-86
2022/01/08 02:49:32;;;;;;;37.28;22.95;;;;;;;-144.19;100.00;77677.75;5077477;28;20055;-88
2022/01/08 02:51:58;;;;;;;37.00;24.60;;;;;;;-144.19;100.00;77669.88;5077267;28;20433;-88
2022/01/08 02:54:25;;;;;;;36.87;25.63;;;;;;;-144.19;100.00;77662.00;5095684;28;20078;-89
2022/01/08 02:56:51;;;;;;;48.03;26.88;;;;;;;-144.19;100.00;77681.69;5076723;28;20381;-88
2022/01/08 02:59:18;;;;;;;41.33;25.88;;;;;;;-144.19;100.00;77677.75;5095442;28;20489;-89
2022/01/08 03:01:45;;;;;;;42.65;24.45;;;;;;;-144.19;100.00;77709.25;5094988;28;20050;-88
2022/01/08 03:04:12;;;;;;;46.70;25.55;;;;;;;-144.19;100.00;77701.38;5094644;28;20040;-88
2022/01/08 03:06:39;;;;;;;39.90;24.95;;;;;;;-144.19;100.00;77709.25;5077493;28;20314;-87
2022/01/08 03:09:06;;;;;;;46.80;26.20;;;;;;;-144.19;100.00;77691.53;5094959;28;20059;-86
2022/01/08 03:11:33;;;;;;;42.65;25.75;;;;;;;-144.19;100.00;77675.78;5077165;28;20048;-86
2022/01/08 03:14:00;;;;;;;41.95;25.02;;;;;;;-144.19;100.00;77685.63;5076412;28;20040;-85
2022/01/08 03:16:26;;;;;;;41.90;24.92;;;;;;;-144.19;100.00;77681.69;5076990;28;20051;-87
2022/01/08 03:18:52;;;;;;;46.53;28.55;;;;;;;-144.19;100.00;77679.72;5094705;28;20477;-89
2022/01/08 03:21:21;;;;;;;38.88;24.67;;;;;;;-144.19;100.00;77705.31;5077435;28;20051;-86
2022/01/08 03:23:55;;;;;;;41.15;24.20;;;;;;;-144.19;100.00;77707.28;5094412;28;20441;-87
2022/01/08 03:26:23;;;;;;;31.27;21.25;;;;;;;-144.19;100.00;77703.34;5094921;28;20089;-86
2022/01/08 03:28:51;;;;;;;30.00;19.45;;;;;;;-144.19;100.00;77693.50;5077076;28;20056;-87
2022/01/08 03:31:18;;;;;;;31.83;20.63;;;;;;;-144.19;100.00;77717.13;5075998;28;20059;-88
2022/01/08 03:33:45;;;;;;;33.03;22.02;;;;;;;-144.19;100.00;77709.25;5076535;28;20114;-85
2022/01/08 03:36:13;;;;;;;34.65;22.80;;;;;;;-144.19;100.00;77723.03;5076172;28;20059;-87
2022/01/08 03:38:39;;;;;;;40.08;23.00;;;;;;;-144.19;100.00;77713.19;5076597;28;20071;-88
2022/01/08 03:41:06;;;;;;;38.55;22.38;;;;;;;-144.19;100.00;77717.13;5076576;28;20048;-88
2022/01/08 03:43:32;;;;;;;39.90;24.25;;;;;;;-144.19;100.00;77728.94;5074481;28;20052;-88
2022/01/08 03:46:02;;;;;;;39.40;25.25;;;;;;;-144.19;100.00;77726.97;5076043;28;20055;-88
2022/01/08 03:48:30;;;;;;;40.58;24.75;;;;;;;-144.19;100.00;77721.06;5076652;28;20048;-86
2022/01/08 03:50:57;;;;;;;42.22;24.55;;;;;;;-144.19;100.00;77723.03;5076183;28;20510;-87
2022/01/08 03:53:25;;;;;;;46.20;28.13;;;;;;;-144.19;100.00;77709.25;5076346;28;20048;-88
2022/01/08 03:55:52;;;;;;;50.65;30.00;;;;;;;-144.19;100.00;77717.13;5085955;28;20059;-87
2022/01/08 03:58:19;;;;;;;;;;;;;;;-144.19;100.00;77728.94;5072144;28;20509;-86
2022/01/08 04:00:47;;;;;;;45.72;27.67;;;;;;;-144.19;100.00;77736.81;5076099;28;19920;-87
2022/01/08 04:03:18;;;;;;;45.90;27.90;;;;;;;-144.19;100.00;77736.81;5075877;28;20578;-87
2022/01/08 04:05:49;;;;;;;46.35;27.55;;;;;;;-144.19;100.00;77736.81;5093987;28;20425;-87
2022/01/08 04:08:17;;;;;;;50.55;28.75;;;;;;;-144.19;100.00;77740.75;5076078;28;20052;-87
2022/01/08 04:10:44;;;;;;;47.75;29.77;;;;;;;-144.19;100.00;77754.53;5076035;28;20502;-88
2022/01/08 04:13:14;;;;;;;51.42;32.47;;;;;;;-144.19;100.00;77732.88;5093282;28;20417;-88
2022/01/08 04:15:44;;;;;;;48.70;30.48;;;;;;;-144.19;100.00;77756.50;5075895;28;20055;-86
2022/01/08 04:18:10;;;;;;;46.42;28.27;;;;;;;-144.19;100.00;77754.53;5076163;28;20051;-87
2022/01/08 04:21:00;;;;;;;43.17;26.73;;;;;;;-144.19;100.00;77764.38;5075543;28;20052;-88
2022/01/08 04:23:27;;;;;;;47.67;27.30;;;;;;;-144.19;100.00;77770.28;5075059;28;20054;-88
2022/01/08 04:25:53;;;;;;;47.08;26.05;;;;;;;-144.19;100.00;77780.13;5075633;28;20056;-87
2022/01/08 04:28:20;;;;;;;39.33;23.77;;;;;;;-144.19;100.00;77782.09;5093873;28;20056;-85
2022/01/08 04:30:47;;;;;;;39.28;24.92;;;;;;;-144.19;100.00;77778.16;5074666;28;20048;-88
2022/01/08 04:33:13;;;;;;;45.20;25.10;;;;;;;-144.19;100.00;77791.94;5075340;28;20044;-88
2022/01/08 04:35:40;;;;;;;47.53;28.10;;;;;;;-144.19;100.00;77793.91;5075162;28;20211;-87
2022/01/08 04:38:06;;;;;;;48.95;29.42;;;;;;;-144.19;100.00;77772.25;5093469;28;20062;-87
2022/01/08 04:40:33;;;;;;;52.28;31.90;;;;;;;-144.19;100.00;77784.06;5075294;28;20063;-87
2022/01/08 04:43:01;;;;;;;57.92;32.88;;;;;;;-144.19;100.00;77793.91;5074948;28;20048;-89
2022/01/08 04:45:30;;;;;;;64.57;33.15;;;;;;;-144.19;100.00;77793.91;5074541;28;20044;-86
2022/01/08 04:47:58;;;;;;;54.78;31.52;;;;;;;-144.19;100.00;77791.94;5074966;28;20055;-88
2022/01/08 04:50:26;;;;;;;61.42;32.47;;;;;;;-144.19;100.00;77803.75;5092516;28;20044;-88
2022/01/08 04:52:53;;;;;;;55.30;33.85;;;;;;;-144.19;100.00;77817.53;5074810;28;20044;-85
2022/01/08 04:55:20;;;;;;;49.55;29.83;;;;;;;-144.19;100.00;77823.44;5074189;28;20047;-86
2022/01/08 04:57:47;;;;;;;50.63;32.08;;;;;;;-144.19;100.00;77803.75;5075042;28;20309;-86
2022/01/08 05:00:15;;;;;;;47.13;29.17;;;;;;;-144.19;100.00;77809.66;5092298;28;20048;-85
2022/01/08 05:02:42;;;;;;;48.38;27.17;;;;;;;-144.19;100.00;77823.44;5074589;28;20052;-87
2022/01/08 05:05:10;;;;;;;48.13;27.92;;;;;;;-144.19;100.00;77841.19;5092520;28;20515;-86
2022/01/08 05:07:37;;;;;;;49.00;28.70;;;;;;;-144.19;100.00;77835.25;5074373;28;20044;-86
2022/01/08 05:10:04;;;;;;;50.38;29.73;;;;;;;-144.19;100.00;77827.38;5074644;28;20051;-89
2022/01/08 05:12:30;;;;;;;;;;;;;;;-144.19;100.00;77837.22;5092433;28;20520;-87
2022/01/08 05:14:57;;;;;;;49.75;30.80;;;;;;;-144.19;100.00;77823.44;5074517;28;19920;-84
2022/01/08 05:17:31;;;;;;;49.88;31.17;;;;;;;-144.19;100.00;77813.59;5074444;28;20055;-85
2022/01/08 05:20:01;;;;;;;52.20;29.67;;;;;;;-144.19;100.00;77831.31;5091959;28;20047;-86
2022/01/08 05:22:30;;;;;;;56.55;31.13;;;;;;;-144.19;100.00;77815.56;5074278;28;20429;-86
2022/01/08 05:24:57;;;;;;;64.93;33.90;;;;;;;-144.19;100.00;77829.34;5073912;28;20047;-87
2022/01/08 05:27:24;;;;;;;59.95;35.60;;;;;;;-144.19;100.00;77817.53;5074765;28;20445;-86
2022/01/08 05:29:52;;;;;;;60.50;33.72;;;;;;;-144.19;100.00;77839.19;5073801;28;20056;-87
2022/01/08 05:32:18;;;;;;;54.85;34.38;;;;;;;-144.19;100.00;77815.56;5073599;28;20052;-85
2022/01/08 05:34:46;;;;;;;;;;;;;;;-144.19;100.00;77827.38;5074427;28;20044;-88
2022/01/08 05:37:14;;;;;;;42.75;27.38;;;;;;;-144.19;100.00;77821.47;5074157;28;19920;-87
2022/01/08 05:39:40;;;;;;;;;;;;;;;-144.19;100.00;77827.38;5092464;28;20399;-87
2022/01/08 05:42:07;;;;;;;55.72;33.50;;;;;;;-144.19;100.00;77827.38;5073781;28;19927;-87
2022/01/08 05:44:34;;;;;;;61.70;32.10;;;;;;;-144.19;100.00;77825.41;5073483;28;20044;-88
2022/01/08 05:47:01;;;;;;;55.83;33.22;;;;;;;-144.19;100.00;77823.44;5073833;28;20048;-88
2022/01/08 05:49:27;;;;;;;60.20;36.22;;;;;;;-144.19;100.00;77831.31;5073636;28;20052;-86
2022/01/08 05:51:54;;;;;;;61.15;33.55;;;;;;;-144.19;100.00;77827.38;5091193;28;20059;-85
2022/01/08 05:54:20;;;;;;;60.58;34.13;;;;;;;-144.19;100.00;77827.38;5073137;28;20052;-85
2022/01/08 05:56:48;;;;;;;59.33;33.50;;;;;;;-144.19;100.00;77835.25;5090867;28;20044;-87
2022/01/08 05:59:15;;;;;;;58.72;34.13;;;;;;;-144.19;100.00;77831.31;5091206;28;20517;-87
2022/01/08 06:01:41;;;;;;;47.63;28.63;;;;;;;-144.19;100.00;77847.09;5073336;28;20044;-88
2022/01/08 06:04:08;;;;;;;64.22;35.85;;;;;;;-144.19;100.00;77813.59;5091088;28;20040;-87
2022/01/08 06:06:35;;;;;;;64.72;36.00;;;;;;;-144.19;100.00;77825.41;5072350;28;20044;-86
2022/01/08 06:09:02;;;;;;;57.97;35.90;;;;;;;-144.19;100.00;77813.59;5073500;28;20044;-85
2022/01/08 06:11:29;;;;;;;59.15;34.67;;;;;;;-144.19;100.00;77815.56;5073132;28;20494;-87
2022/01/08 06:13:55;;;;;;;66.03;34.65;;;;;;;-144.19;100.00;77827.38;5091008;28;20052;-86
2022/01/08 06:16:21;;;;;;;59.57;35.13;;;;;;;-144.19;100.00;77827.38;5073155;28;20044;-85
2022/01/08 06:18:48;;;;;;;57.35;35.78;;;;;;;-144.19;100.00;77851.03;5091366;28;20048;-85
2022/01/08 06:21:14;;;;;;;62.58;33.80;;;;;;;-144.19;100.00;77847.09;5072992;28;20056;-87
2022/01/08 06:23:40;;;;;;;60.28;34.83;;;;;;;-144.19;100.00;77847.09;5073112;28;20044;-86
2022/01/08 06:26:08;;;;;;;62.53;35.03;;;;;;;-144.19;100.00;77858.91;5090972;28;20058;-85
2022/01/08 06:28:35;;;;;;;59.90;34.42;;;;;;;-144.19;100.00;77862.84;5073314;28;20290;-85
2022/01/08 06:31:02;;;;;;;62.63;33.88;;;;;;;-144.19;100.00;77862.84;5072392;28;20051;-86
2022/01/08 06:33:28;;;;;;;57.22;33.75;;;;;;;-144.19;100.00;77866.78;5072932;28;20525;-86
2022/01/08 06:35:55;;;;;;;61.38;32.38;;;;;;;-144.19;100.00;77870.72;5090992;28;20044;-86
2022/01/08 06:38:21;;;;;;;;;;;;;;;-144.19;100.00;77878.59;5091573;28;20520;-86
2022/01/08 06:40:48;;;;;;;60.45;33.85;;;;;;;-144.19;100.00;77882.53;5073038;28;19920;-87
2022/01/08 06:43:14;;;;;;;54.85;31.73;;;;;;;-144.19;100.00;77890.41;5072865;28;20052;-86
2022/01/08 06:45:41;;;;;;;56.47;32.35;;;;;;;-144.19;100.00;77882.53;5072861;28;20492;-86
2022/01/08 06:48:07;;;;;;;55.72;32.63;;;;;;;-144.19;100.00;77898.28;5091013;28;20044;-88
2022/01/08 06:50:34;;;;;;;51.47;31.73;;;;;;;-144.19;100.00;77900.25;5090821;28;20048;-86
2022/01/08 06:53:00;;;;;;;50.25;28.02;;;;;;;-144.19;100.00;77914.03;5073084;28;20482;-88
2022/01/08 06:55:27;;;;;;;52.20;28.83;;;;;;;-144.19;100.00;77906.16;5072830;28;20044;-86
2022/01/08 06:57:55;;;;;;;43.13;26.33;;;;;;;-144.19;100.00;77916.00;5073354;28;20417;-87
2022/01/08 07:00:21;;;;;;;48.55;27.33;;;;;;;-144.19;100.00;77914.03;5072765;28;20132;-88
2022/01/08 07:02:48;;;;;;;56.03;30.17;;;;;;;-144.19;100.00;77902.22;5072296;28;20333;-89
2022/01/08 07:05:14;;;;;;;54.42;30.17;;;;;;;-144.19;100.00;77914.03;5072727;28;20506;-87
2022/01/08 07:07:40;;;;;;;57.73;32.30;;;;;;;-144.19;100.00;77906.16;5073089;28;20048;-87
2022/01/08 07:10:07;;;;;;;53.47;30.27;;;;;;;-144.19;100.00;77912.06;5072602;28;20297;-85
2022/01/08 07:12:34;;;;;;;49.95;29.42;;;;;;;-144.19;100.00;77914.03;5072633;28;20286;-87
2022/01/08 07:15:01;;;;;;;49.08;28.02;;;;;;;-144.19;100.00;77912.06;5072762;28;20050;-86
2022/01/08 07:17:28;;;;;;;48.72;29.10;;;;;;;-144.19;100.00;77914.03;5074758;28;20328;-88
2022/01/08 07:19:54;;;;;;;51.17;30.15;;;;;;;-144.19;100.00;77906.16;5076267;28;20084;-87
2022/01/08 07:22:21;;;;;;;50.17;30.98;;;;;;;-144.19;100.00;77904.19;5094419;28;20044;-88
2022/01/08 07:24:47;;;;;;;54.47;31.10;;;;;;;-144.19;100.00;77910.09;5076286;28;20047;-86
2022/01/08 07:27:13;;;;;;;49.43;32.07;;;;;;;-144.19;100.00;77910.09;5095036;28;20312;-86
2022/01/08 07:29:40;;;;;;;58.78;33.13;;;;;;;-144.19;100.00;77914.03;5076616;28;20290;-87
2022/01/08 07:32:06;;;;;;;59.92;32.75;;;;;;;-144.19;100.00;77910.09;5093847;28;20475;-87
2022/01/08 07:34:33;;;;;;;58.92;33.08;;;;;;;-144.19;100.00;77910.09;5076430;28;20051;-85
2022/01/08 07:36:59;;;;;;;62.85;35.70;;;;;;;-144.19;100.00;77914.03;5094133;28;20048;-88
2022/01/08 07:39:26;;;;;;;58.47;34.17;;;;;;;-144.19;100.00;77916.00;5094568;28;20421;-88
2022/01/08 07:41:52;;;;;;;50.30;32.13;;;;;;;-144.19;100.00;77921.91;5076408;28;20051;-87
2022/01/08 07:44:18;;;;;;;59.83;33.25;;;;;;;-144.19;100.00;77917.97;5093963;28;20047;-86
2022/01/08 07:46:45;;;;;;;61.28;35.65;;;;;;;-144.19;100.00;77914.03;5076322;28;20079;-85
2022/01/08 07:49:11;;;;;;;51.60;32.58;;;;;;;-144.19;100.00;77917.97;5094441;28;20059;-86
2022/01/08 07:51:37;;;;;;;51.38;30.55;;;;;;;-144.19;100.00;77921.91;5075690;28;20058;-86
2022/01/08 07:54:04;;;;;;;51.07;30.20;;;;;;;-144.19;100.00;77917.97;5076131;28;20074;-87
2022/01/08 07:56:30;;;;;;;46.03;27.55;;;;;;;-144.19;100.00;77917.97;5094325;28;20287;-86
2022/01/08 07:58:57;;;;;;;44.45;26.98;;;;;;;-144.19;100.00;77921.91;5094976;28;20048;-88
2022/01/08 08:01:23;;;;;;;46.97;28.52;;;;;;;-144.19;100.00;77916.00;5075987;28;20052;-87
2022/01/08 08:03:49;;;;;;;43.40;27.43;;;;;;;-144.19;100.00;77914.03;5093949;28;20059;-86
2022/01/08 08:06:16;;;;;;;46.42;29.88;;;;;;;-144.19;100.00;77910.09;5076282;28;20718;-90
2022/01/08 08:08:44;;;;;;;52.90;28.85;;;;;;;-144.19;100.00;77912.06;5076111;28;20044;-88
2022/01/08 08:11:10;;;;;;;55.92;30.08;;;;;;;-144.19;100.00;77912.06;5076199;28;20536;-87
2022/01/08 08:13:37;;;;;;;50.95;29.92;;;;;;;-144.19;100.00;77906.16;5093640;28;20052;-87
2022/01/08 08:16:03;;;;;;;51.28;28.63;;;;;;;-144.19;100.00;77917.97;5093740;28;20055;-88
2022/01/08 08:18:30;;;;;;;51.85;31.33;;;;;;;-144.19;100.00;77904.19;5093829;28;20073;-87
2022/01/08 08:20:56;;;;;;;54.15;30.85;;;;;;;-144.19;100.00;77914.03;5075480;28;20062;-85
2022/01/08 08:23:23;;;;;;;48.75;29.73;;;;;;;-144.19;100.00;77910.09;5075600;28;20059;-87
2022/01/08 08:25:49;;;;;;;59.58;34.75;;;;;;;-144.19;100.00;77904.19;5093667;28;20052;-87
2022/01/08 08:28:16;;;;;;;69.90;35.58;;;;;;;-144.19;100.00;77894.34;5074865;28;20048;-88
2022/01/08 08:30:42;;;;;;;57.58;34.25;;;;;;;-144.19;100.00;77906.16;5074823;28;20074;-87
2022/01/08 08:33:08;;;;;;;58.47;33.97;;;;;;;-144.19;100.00;77902.22;5093795;28;20421;-87
2022/01/08 08:35:35;;;;;;;56.20;32.63;;;;;;;-144.19;100.00;77906.16;5093395;28;20059;-87
2022/01/08 08:38:02;;;;;;;51.97;31.60;;;;;;;-144.19;100.00;77894.34;5075776;28;20056;-88
2022/01/08 08:40:28;;;;;;;53.65;32.47;;;;;;;-144.19;100.00;77898.28;5075028;28;20044;-85
2022/01/08 08:42:55;;;;;;;54.72;33.10;;;;;;;-144.19;100.00;77900.25;5075156;28;20497;-86
2022/01/08 08:45:22;;;;;;;56.63;33.20;;;;;;;-144.19;100.00;77874.66;5074622;28;20046;-87
2022/01/08 08:47:49;;;;;;;61.63;36.30;;;;;;;-144.19;100.00;77882.53;5092965;28;20290;-86
2022/01/08 08:50:16;;;;;;;61.60;36.03;;;;;;;-144.19;100.00;77882.53;5092986;28;20051;-86
2022/01/08 08:52:43;;;;;;;;;;;;;;;-144.19;100.00;77874.66;5075542;28;20044;-87
2022/01/08 08:55:09;;;;;;;59.60;33.83;;;;;;;-144.19;100.00;77854.97;5074675;28;19951;-86
2022/01/08 08:57:36;;;;;;;47.33;28.90;;;;;;;-144.19;100.00;77862.84;5075255;28;20052;-87
2022/01/08 09:00:03;;;;;;;44.85;26.48;;;;;;;-144.19;100.00;77858.91;5074527;28;20058;-88
2022/01/08 09:02:30;;;;;;;47.83;29.30;;;;;;;-144.19;100.00;77845.13;5073307;28;20062;-86
2022/01/08 09:04:56;;;;;;;52.15;31.65;;;;;;;-144.19;100.00;77841.19;5074551;28;20068;-87
2022/01/08 09:07:23;;;;;;;53.38;28.42;;;;;;;-144.19;100.00;77831.31;5074531;28;20059;-88
2022/01/08 09:09:49;;;;;;;40.80;27.75;;;;;;;-144.19;100.00;77819.50;5092708;28;20052;-88
2022/01/08 09:12:16;;;;;;;44.65;28.75;;;;;;;-144.19;100.00;77811.63;5074520;28;20490;-86
2022/01/08 09:14:43;;;;;;;51.53;28.70;;;;;;;-144.19;100.00;77803.75;5093043;28;20048;-88
2022/01/08 09:17:12;;;;;;;44.08;26.83;;;;;;;-144.19;100.00;77799.81;5074957;28;20062;-88
2022/01/08 09:19:38;;;;;;;42.38;27.23;;;;;;;-144.19;100.00;77776.19;5075296;28;20060;-86
2022/01/08 09:22:05;;;;;;;46.42;26.75;;;;;;;-144.19;100.00;77789.97;5092804;28;20056;-88
2022/01/08 09:24:33;;;;;;;47.50;27.33;;;;;;;-144.19;100.00;77791.94;5093549;28;20055;-87
2022/01/08 09:27:00;;;;;;;51.65;29.10;;;;;;;-144.19;100.00;77768.31;5093716;28;20055;-87
2022/01/08 09:29:27;;;;;;;45.00;26.38;;;;;;;-144.19;100.00;77770.28;5074832;28;20130;-88
2022/01/08 09:31:53;;;;;;;38.22;23.83;;;;;;;-144.19;100.00;77772.25;5092427;28;20052;-85
2022/01/08 09:34:20;;;;;;;48.17;25.60;;;;;;;-144.19;100.00;77764.38;5074361;28;20046;-86
2022/01/08 09:36:48;;;;;;;43.88;25.42;;;;;;;-144.19;100.00;77746.66;5092308;28;20510;-86
2022/01/08 09:39:15;;;;;;;46.92;28.77;;;;;;;-144.19;100.00;77742.72;5074132;28;20062;-85
2022/01/08 09:41:42;;;;;;;46.65;27.25;;;;;;;-144.19;100.00;77734.84;5074089;28;20051;-87
2022/01/08 09:44:09;;;;;;;44.92;26.05;;;;;;;-144.19;100.00;77752.56;5074086;28;20109;-85
2022/01/08 09:46:36;;;;;;;44.75;28.30;;;;;;;-144.19;100.00;77728.94;5074440;28;20058;-85
2022/01/08 09:49:03;;;;;;;43.60;25.77;;;;;;;-144.19;100.00;77734.84;5092409;28;20059;-87
2022/01/08 09:51:29;;;;;;;44.80;27.60;;;;;;;-144.19;100.00;77717.13;5092099;28;20052;-88
2022/01/08 09:53:56;;;;;;;50.13;27.83;;;;;;;-144.19;100.00;77711.22;5092073;28;20055;-86
2022/01/08 09:56:25;;;;;;;43.72;25.92;;;;;;;-144.19;100.00;77719.09;5092173;28;20286;-88
2022/01/08 09:58:52;;;;;;;44.10;25.67;;;;;;;-144.19;100.00;77723.03;5092087;28;20142;-87
2022/01/08 10:01:26;;;;;;;46.58;26.38;;;;;;;-144.19;100.00;77717.13;5073828;28;20058;-85
2022/01/08 10:03:53;;;;;;;39.45;25.25;;;;;;;-144.19;100.00;77715.16;5073680;28;20059;-86
2022/01/08 10:06:24;;;;;;;;;;;;;;;-144.19;100.00;77711.22;5092602;28;20462;-88
2022/01/08 10:08:51;;;;;;;38.38;23.77;;;;;;;-144.19;100.00;77709.25;5074364;28;19920;-87
2022/01/08 10:11:19;;;;;;;44.20;27.48;;;;;;;-144.19;100.00;77689.56;5073732;28;20052;-88
2022/01/08 10:13:48;;;;;;;37.60;23.42;;;;;;;-144.19;100.00;77693.50;5074698;28;20048;-87
2022/01/08 10:19:20;;;;;;;37.47;22.63;;;;;;;-144.19;100.00;77662.00;5092269;28;20048;-86
2022/01/08 10:21:48;;;;;;;38.28;23.55;;;;;;;-144.19;100.00;77665.94;5092231;28;20056;-86
2022/01/08 10:24:22;;;;;;;35.47;23.30;;;;;;;-144.19;100.00;77642.31;5091874;28;20060;-88
2022/01/08 10:26:51;;;;;;;40.78;20.98;;;;;;;-144.19;100.00;77610.81;5092143;28;20074;-86
2022/01/08 10:29:20;;;;;;;41.25;24.92;;;;;;;-144.19;100.00;77534.00;5074017;28;20402;-87
2022/01/08 10:31:50;;;;;;;38.30;22.58;;;;;;;-144.19;100.00;77559.63;5073656;28;20060;-86
2022/01/08 10:34:18;;;;;;;44.10;25.40;;;;;;;-144.19;100.00;77443.44;5091952;28;20421;-87
2022/01/08 10:36:55;;;;;;;36.15;21.10;;;;;;;-144.19;100.00;77545.84;5074595;28;20249;-85
2022/01/08 10:39:36;;;;;;;38.53;21.85;;;;;;;-144.19;100.00;77524.16;5091911;28;20131;-87
2022/01/08 10:42:14;;;;;;;32.28;19.80;;;;;;;-144.19;100.00;77535.97;5091581;28;20063;-86
2022/01/08 10:44:42;;;;;;;;;;;;;;;-144.19;100.00;77528.09;5091875;28;20048;-88
2022/01/08 10:47:13;;;;;;;33.13;19.38;;;;;;;-144.19;100.00;77528.09;5074792;28;19942;-87
2022/01/08 10:50:00;;;;;;;37.92;23.20;;;;;;;-144.19;100.00;77486.75;5092481;28;20048;-88
2022/01/08 10:52:27;;;;;;;30.60;20.58;;;;;;;-144.19;100.00;77516.28;5075766;28;20144;-85
2022/01/08 10:55:01;;;;;;;33.80;20.75;;;;;;;-144.19;100.00;77459.19;5096369;28;20048;-88
2022/01/08 10:57:31;;;;;;;33.38;21.55;;;;;;;-144.19;100.00;77543.84;5097466;28;20048;-86
2022/01/08 10:59:58;;;;;;;28.95;20.13;;;;;;;-144.19;100.00;77549.75;5078521;28;20052;-88
2022/01/08 11:02:28;;;;;;;38.00;20.17;;;;;;;-144.19;100.00;77579.31;5077388;28;20528;-88
2022/01/08 11:04:55;;;;;;;37.97;22.85;;;;;;;-144.19;100.00;77563.56;5078348;28;20328;-86
2022/01/08 11:07:27;;;;;;;35.55;21.67;;;;;;;-144.19;100.00;77614.75;5079180;28;20498;-87
2022/01/08 11:09:56;;;;;;;40.50;23.48;;;;;;;-144.19;100.00;77561.59;5079957;28;20055;-86
2022/01/08 11:12:28;;;;;;;30.20;18.98;;;;;;;-144.19;100.00;77624.59;5078852;28;20066;-90
2022/01/08 11:15:12;;;;;;;33.20;20.30;;;;;;;-144.19;100.00;77630.50;5097065;28;20044;-87